createdAt,value
2018-02-09T00:01:43.180Z,68.32
2018-02-09T00:04:09.624Z,68.35
2018-02-09T00:06:36.129Z,63.45
2018-02-09T00:09:02.644Z,63.33
2018-02-09T00:11:29.292Z,61.95
2018-02-09T00:13:55.726Z,59.40
2018-02-09T00:16:22.988Z,63.13
2018-02-09T00:18:50.464Z,63.90
2018-02-09T00:21:16.972Z,62.67
2018-02-09T00:23:43.459Z,61.83
2018-02-09T00:26:09.920Z,62.00
2018-02-09T00:28:36.431Z,77.10
2018-02-09T00:31:02.893Z,71.65
2018-02-09T00:33:29.340Z,62.95
2018-02-09T00:35:55.816Z,60.80
2018-02-09T00:38:22.344Z,67.68
2018-02-09T00:40:49.672Z,68.70
2018-02-09T00:43:16.180Z,72.32
2018-02-09T00:45:42.732Z,80.40
2018-02-09T00:48:09.249Z,75.05
2018-02-09T00:50:35.712Z,74.50
2018-02-09T00:53:02.129Z,60.55
2018-02-09T00:55:28.613Z,71.37
2018-02-09T00:57:55.152Z,77.95
2018-02-09T01:00:21.632Z,64.78
2018-02-09T01:02:48.865Z,73.20
2018-02-09T01:05:15.345Z,70.37
2018-02-09T01:07:41.867Z,66.18
2018-02-09T01:10:08.382Z,63.85
2018-02-09T01:12:34.856Z,73.20
2018-02-09T01:15:01.295Z,69.62
2018-02-09T01:17:28.554Z,68.53
2018-02-09T01:19:55.016Z,65.95
2018-02-09T01:22:21.476Z,72.70
2018-02-09T01:24:47.948Z,70.82
2018-02-09T01:27:14.772Z,75.93
2018-02-09T01:29:42.739Z,73.15
2018-02-09T01:32:09.200Z,66.15
2018-02-09T01:34:35.635Z,83.07
2018-02-09T01:37:02.827Z,69.75
2018-02-09T01:39:29.348Z,64.43
2018-02-09T01:41:55.827Z,63.80
2018-02-09T01:44:22.347Z,67.05
2018-02-09T01:46:48.832Z,65.30
2018-02-09T01:49:15.346Z,71.90
2018-02-09T01:51:41.772Z,72.03
2018-02-09T01:54:08.276Z,69.87
2018-02-09T01:56:36.578Z,71.43
2018-02-09T02:42:44.639Z,55.42
2018-02-09T02:45:11.116Z,73.57
2018-02-09T02:47:37.576Z,66.43
2018-02-09T02:50:04.091Z,74.85
2018-02-09T02:52:30.644Z,72.93
2018-02-09T02:54:57.183Z,66.75
2018-02-09T02:57:24.436Z,71.18
2018-02-09T02:59:51.686Z,74.95
2018-02-09T03:02:18.260Z,66.28
2018-02-09T03:04:45.538Z,67.93
2018-02-09T03:07:12.035Z,72.20
2018-02-09T03:09:38.464Z,62.45
2018-02-09T03:12:04.941Z,70.65
2018-02-09T03:14:32.416Z,60.92
2018-02-09T03:16:58.901Z,69.93
2018-02-09T03:19:25.381Z,67.03
2018-02-09T03:21:52.076Z,65.70
2018-02-09T03:24:19.336Z,62.90
2018-02-09T03:26:45.857Z,69.28
2018-02-09T03:29:12.313Z,62.97
2018-02-09T03:31:38.787Z,65.60
2018-02-09T03:34:05.312Z,63.08
2018-02-09T03:36:31.764Z,69.47
2018-02-09T03:38:58.220Z,70.32
2018-02-09T03:41:24.796Z,71.18
2018-02-09T03:43:52.020Z,68.78
2018-02-09T03:46:18.483Z,68.28
2018-02-09T03:48:45.076Z,65.07
2018-02-09T03:51:11.465Z,61.85
2018-02-09T03:53:37.907Z,66.40
2018-02-09T03:56:04.384Z,64.12
2018-02-09T03:58:30.946Z,67.32
2018-02-09T04:00:57.351Z,77.87
2018-02-09T04:03:24.630Z,76.05
2018-02-09T04:05:51.055Z,78.43
2018-02-09T04:08:21.396Z,72.37
2018-02-09T04:10:48.007Z,78.07
2018-02-09T04:13:15.228Z,80.97
2018-02-09T04:15:42.503Z,67.35
2018-02-09T04:18:08.935Z,72.85
2018-02-09T04:20:35.423Z,69.15
2018-02-09T04:23:02.872Z,73.30
2018-02-09T04:25:29.287Z,63.55
2018-02-09T04:27:55.770Z,66.03
2018-02-09T04:30:22.352Z,65.57
2018-02-09T04:32:49.573Z,64.95
2018-02-09T04:35:16.064Z,68.15
2018-02-09T04:37:43.312Z,72.47
2018-02-09T04:40:10.590Z,69.20
2018-02-09T04:42:37.808Z,68.47
2018-02-09T04:45:04.284Z,63.85
2018-02-09T04:47:30.788Z,76.90
2018-02-09T04:49:57.276Z,78.22
2018-02-09T04:52:23.809Z,72.12
2018-02-09T04:54:50.252Z,61.78
2018-02-09T04:57:16.726Z,68.30
2018-02-09T04:59:43.276Z,61.25
2018-02-09T05:02:10.540Z,64.47
2018-02-09T05:04:37.805Z,65.18
2018-02-09T05:07:04.346Z,73.07
2018-02-09T05:09:30.804Z,63.63
2018-02-09T05:11:57.321Z,67.50
2018-02-09T05:14:23.781Z,68.15
2018-02-09T05:16:50.256Z,67.03
2018-02-09T05:19:17.500Z,73.85
2018-02-09T05:21:44.055Z,68.93
2018-02-09T05:24:10.588Z,68.30
2018-02-09T05:26:37.068Z,70.05
2018-02-09T05:29:04.304Z,72.95
2018-02-09T05:31:30.764Z,68.75
2018-02-09T05:33:57.293Z,70.15
2018-02-09T05:36:23.756Z,62.50
2018-02-09T05:38:50.191Z,69.55
2018-02-09T05:41:16.687Z,78.70
2018-02-09T05:43:43.948Z,65.35
2018-02-09T05:46:10.477Z,69.60
2018-02-09T05:48:37.716Z,72.32
2018-02-09T05:51:04.269Z,75.87
2018-02-09T05:53:30.723Z,68.28
2018-02-09T05:55:57.215Z,72.43
2018-02-09T05:58:24.424Z,69.00
2018-02-09T06:00:51.722Z,78.43
2018-02-09T06:03:18.285Z,63.50
2018-02-09T06:05:44.823Z,67.03
2018-02-09T06:08:11.368Z,74.68
2018-02-09T06:10:37.924Z,69.07
2018-02-09T06:13:04.353Z,77.25
2018-02-09T06:15:30.789Z,75.93
2018-02-09T06:17:57.269Z,71.90
2018-02-09T06:20:23.820Z,68.97
2018-02-09T06:22:50.359Z,79.37
2018-02-09T06:25:16.859Z,70.07
2018-02-09T06:27:44.037Z,65.65
2018-02-09T06:30:10.532Z,71.65
2018-02-09T06:32:37.020Z,64.20
2018-02-09T06:35:03.550Z,64.28
2018-02-09T06:37:30.069Z,66.62
2018-02-09T06:39:56.606Z,69.28
2018-02-09T06:42:23.039Z,67.55
2018-02-09T06:44:49.531Z,66.68
2018-02-09T06:47:16.072Z,67.62
2018-02-09T06:49:42.576Z,75.32
2018-02-09T06:52:09.011Z,68.00
2018-02-09T06:54:35.464Z,68.40
2018-02-09T06:57:01.913Z,69.22
2018-02-09T06:59:28.380Z,70.37
2018-02-09T07:01:54.808Z,75.10
2018-02-09T07:04:21.260Z,75.68
2018-02-09T07:06:47.705Z,71.30
2018-02-09T07:09:14.163Z,65.68
2018-02-09T07:11:40.607Z,74.95
2018-02-09T07:14:07.048Z,66.72
2018-02-09T07:16:33.509Z,77.10
2018-02-09T07:19:00.846Z,71.43
2018-02-09T07:21:27.355Z,66.93
2018-02-09T07:23:53.782Z,71.57
2018-02-09T07:26:20.179Z,68.05
2018-02-09T07:28:46.718Z,79.20
2018-02-09T07:31:13.904Z,71.07
2018-02-09T07:33:40.292Z,75.97
2018-02-09T07:36:07.110Z,74.53
2018-02-09T07:38:33.507Z,72.07
2018-02-09T07:41:00.027Z,77.10
2018-02-09T07:43:26.387Z,75.90
2018-02-09T07:45:52.824Z,75.97
2018-02-09T07:48:19.227Z,76.12
2018-02-09T07:50:45.651Z,79.87
2018-02-09T07:53:12.820Z,79.62
2018-02-09T07:55:40.010Z,81.07
2018-02-09T07:58:06.399Z,67.65
2018-02-09T08:00:32.813Z,79.47
2018-02-09T08:02:59.227Z,81.12
2018-02-09T08:05:26.420Z,81.68
2018-02-09T08:07:52.808Z,82.35
2018-02-09T08:10:19.228Z,81.03
2018-02-09T08:12:45.707Z,96.57
2018-02-09T08:15:12.092Z,102.50
2018-02-09T08:17:39.252Z,89.25
2018-02-09T08:20:05.809Z,87.60
2018-02-09T08:22:32.268Z,97.88
2018-02-09T08:24:58.737Z,83.53
2018-02-09T08:27:25.135Z,87.82
2018-02-09T08:29:52.251Z,92.30
2018-02-09T08:32:18.649Z,107.50
2018-02-09T08:34:45.053Z,98.12
2018-02-09T08:37:11.447Z,98.68
2018-02-09T08:39:38.611Z,92.47
2018-02-09T08:42:05.040Z,102.72
2018-02-09T08:44:32.223Z,101.55
2018-02-09T08:46:59.380Z,110.80
2018-02-09T08:49:26.566Z,97.37
2018-02-09T08:51:52.940Z,96.60
2018-02-09T08:54:19.368Z,104.95
2018-02-09T08:56:45.753Z,101.93
2018-02-09T08:59:12.159Z,98.53
2018-02-09T09:01:38.526Z,106.75
2018-02-09T09:04:04.956Z,99.87
2018-02-09T09:06:31.349Z,101.40
2018-02-09T09:08:57.801Z,109.45
2018-02-09T09:11:24.416Z,95.62
2018-02-09T09:13:50.831Z,108.28
2018-02-09T09:16:17.275Z,97.05
2018-02-09T09:18:43.724Z,102.68
2018-02-09T09:21:10.115Z,110.30
2018-02-09T09:23:36.528Z,103.87
2018-02-09T09:26:02.973Z,114.57
2018-02-09T09:28:29.391Z,105.87
2018-02-09T09:30:56.528Z,100.47
2018-02-09T09:33:22.981Z,108.12
2018-02-09T09:35:49.368Z,116.00
2018-02-09T09:38:15.791Z,102.03
2018-02-09T09:40:42.940Z,103.65
2018-02-09T09:43:09.328Z,106.50
2018-02-09T09:45:35.789Z,108.65
2018-02-09T09:48:02.158Z,109.90
2018-02-09T09:50:28.584Z,122.05
2018-02-09T09:52:55.167Z,118.00
2018-02-09T09:55:21.590Z,113.93
2018-02-09T09:57:47.999Z,106.40
2018-02-09T10:00:14.470Z,105.65
2018-02-09T10:02:40.890Z,96.50
2018-02-09T10:05:07.314Z,115.20
2018-02-09T10:07:33.838Z,99.80
2018-02-09T10:10:00.254Z,107.80
2018-02-09T10:12:26.667Z,99.40
2018-02-09T10:14:53.803Z,103.75
2018-02-09T10:17:20.224Z,102.28
2018-02-09T10:19:46.693Z,107.00
2018-02-09T10:22:13.113Z,110.10
2018-02-09T10:24:39.531Z,85.00
2018-02-09T10:27:07.380Z,103.78
2018-02-09T10:29:33.790Z,84.85
2018-02-09T10:32:00.200Z,96.18
2018-02-09T10:34:26.627Z,90.05
2018-02-09T10:36:53.775Z,94.87
2018-02-09T10:39:20.222Z,84.22
2018-02-09T10:41:46.680Z,86.80
2018-02-09T10:44:13.087Z,98.90
2018-02-09T10:46:39.492Z,90.85
2018-02-09T10:49:06.655Z,97.37
2018-02-09T10:51:33.072Z,84.93
2018-02-09T10:53:59.490Z,93.65
2018-02-09T10:56:25.871Z,92.60
2018-02-09T10:58:52.324Z,82.15
2018-02-09T11:01:25.588Z,83.40
2018-02-09T11:03:52.041Z,84.70
2018-02-09T11:06:18.439Z,89.07
2018-02-09T11:08:45.619Z,88.95
2018-02-09T11:11:17.095Z,77.68
2018-02-09T11:13:43.532Z,85.72
2018-02-09T11:16:09.952Z,84.80
2018-02-09T11:18:37.127Z,82.80
2018-02-09T11:21:04.306Z,82.50
2018-02-09T11:23:30.808Z,78.60
2018-02-09T11:25:57.208Z,77.10
2018-02-09T11:28:23.627Z,75.05
2018-02-09T11:30:50.895Z,78.20
2018-02-09T12:55:15.155Z,84.77
2018-02-09T12:57:41.532Z,86.57
2018-02-09T13:00:07.951Z,82.67
2018-02-09T13:02:34.321Z,86.60
2018-02-09T13:05:00.718Z,84.80
2018-02-09T13:07:27.150Z,85.10
2018-02-09T13:09:54.324Z,84.63
2018-02-09T13:12:32.851Z,84.70
2018-02-09T13:14:59.242Z,90.30
2018-02-09T13:17:25.759Z,79.10
2018-02-09T13:19:52.135Z,85.20
2018-02-09T13:22:32.256Z,79.67
2018-02-09T13:24:58.727Z,79.40
2018-02-09T13:27:25.121Z,94.20
2018-02-09T13:29:51.522Z,77.07
2018-02-09T13:32:30.247Z,81.30
2018-02-09T13:34:56.649Z,70.00
2018-02-09T13:37:32.085Z,78.77
2018-02-09T13:42:31.586Z,79.30
2018-02-09T13:45:11.377Z,82.43
2018-02-09T13:47:37.893Z,74.87
2018-02-09T13:50:04.987Z,80.63
2018-02-09T13:52:31.360Z,79.07
2018-02-09T13:54:57.776Z,78.77
2018-02-09T13:57:24.170Z,78.47
2018-02-09T13:59:50.552Z,84.97
2018-02-09T14:02:17.639Z,78.57
2018-02-09T14:04:44.010Z,72.70
2018-02-09T14:07:10.387Z,72.80
2018-02-09T14:09:37.813Z,75.77
2018-02-09T14:12:04.204Z,76.03
2018-02-09T14:14:31.320Z,71.20
2018-02-09T14:16:57.706Z,72.50
2018-02-09T14:19:24.827Z,74.57
2018-02-09T14:21:51.260Z,68.40
2018-02-09T14:24:17.700Z,65.77
2018-02-09T14:26:44.060Z,79.30
2018-02-09T14:29:10.492Z,75.77
2018-02-09T14:31:36.906Z,76.40
2018-02-09T14:34:04.088Z,78.57
2018-02-09T14:36:30.501Z,73.40
2018-02-09T14:38:56.911Z,71.80
2018-02-09T14:41:23.289Z,71.00
2018-02-09T14:43:50.725Z,66.63
2018-02-09T14:46:17.103Z,65.70
2018-02-09T14:48:44.265Z,76.50
2018-02-09T14:51:10.676Z,71.80
2018-02-09T14:53:37.072Z,78.73
2018-02-09T14:56:04.213Z,75.07
2018-02-09T14:58:30.624Z,76.07
2018-02-09T15:00:56.974Z,73.00
2018-02-09T15:03:23.405Z,73.00
2018-02-09T15:05:49.811Z,78.17
2018-02-09T15:08:16.204Z,69.97
2018-02-09T15:10:42.579Z,67.53
2018-02-09T15:13:09.028Z,67.63
2018-02-09T15:15:35.412Z,67.00
2018-02-09T15:18:02.580Z,73.53
2018-02-09T15:20:29.706Z,68.30
2018-02-09T15:22:56.834Z,72.93
2018-02-09T15:25:23.259Z,65.47
2018-02-09T15:27:50.369Z,67.00
2018-02-09T15:30:16.785Z,72.50
2018-02-09T15:32:43.200Z,82.00
2018-02-09T15:35:10.365Z,69.37
2018-02-09T15:37:36.770Z,73.33
2018-02-09T15:40:03.234Z,69.10
2018-02-09T15:42:29.624Z,68.87
2018-02-09T15:44:56.785Z,73.77
2018-02-09T15:47:23.920Z,69.93
2018-02-09T15:49:50.344Z,69.80
2018-02-09T15:52:16.736Z,74.90
2018-02-09T15:54:43.927Z,71.80
2018-02-09T15:57:10.337Z,71.00
2018-02-09T15:59:36.830Z,75.13
2018-02-09T16:02:03.203Z,77.17
2018-02-09T16:04:29.771Z,76.80
2018-02-09T16:06:56.931Z,72.87
2018-02-09T16:09:23.360Z,80.43
2018-02-09T16:11:49.754Z,68.90
2018-02-09T16:14:16.922Z,69.80
2018-02-09T16:16:44.048Z,68.63
2018-02-09T16:19:10.441Z,77.75
2018-02-09T16:21:36.868Z,88.45
2018-02-09T16:24:03.294Z,67.70
2018-02-09T16:26:29.755Z,73.18
2018-02-09T16:28:56.176Z,68.35
2018-02-09T16:31:22.570Z,73.80
2018-02-09T16:33:48.973Z,74.47
2018-02-09T16:36:15.374Z,71.07
2018-02-09T16:38:41.794Z,73.30
2018-02-09T16:41:08.232Z,86.70
2018-02-09T16:43:35.406Z,78.17
2018-02-09T16:46:02.547Z,93.60
2018-02-09T16:48:28.940Z,123.70
2018-02-09T16:50:55.370Z,87.77
2018-02-09T16:53:21.810Z,80.23
2018-02-09T16:55:48.965Z,82.43
2018-02-09T16:58:16.110Z,69.62
2018-02-09T17:00:42.540Z,76.45
2018-02-09T17:03:08.988Z,72.68
2018-02-09T17:05:35.412Z,74.95
2018-02-09T17:08:01.823Z,69.25
2018-02-09T17:10:28.948Z,77.35
2018-02-09T17:12:55.402Z,71.53
2018-02-09T17:15:22.608Z,67.22
2018-02-09T17:17:49.138Z,69.12
2018-02-09T17:20:16.310Z,70.82
2018-02-09T17:22:43.506Z,70.50
2018-02-09T17:25:09.999Z,72.40
2018-02-09T17:27:36.476Z,73.70
2018-02-09T17:30:03.839Z,83.72
2018-02-09T17:32:30.731Z,82.20
2018-02-09T17:34:57.138Z,77.15
2018-02-09T17:37:24.273Z,79.05
2018-02-09T17:39:50.691Z,73.90
2018-02-09T17:42:17.084Z,67.30
2018-02-09T17:44:43.514Z,76.80
2018-02-09T17:47:09.953Z,72.15
2018-02-09T17:49:36.379Z,73.50
2018-02-09T17:52:02.771Z,73.80
2018-02-09T17:54:29.187Z,76.40
2018-02-09T17:56:56.345Z,79.62
2018-02-09T17:59:22.745Z,76.95
2018-02-09T18:01:49.902Z,86.90
2018-02-09T18:04:16.552Z,82.10
2018-02-09T18:06:43.678Z,84.45
2018-02-09T18:09:10.079Z,77.32
2018-02-09T18:11:36.600Z,79.00
2018-02-09T18:14:03.007Z,79.40
2018-02-09T18:16:29.468Z,80.07
2018-02-09T19:30:27.242Z,84.68
2018-02-09T19:32:53.722Z,93.12
2018-02-09T19:35:21.991Z,92.70
2018-02-09T19:37:48.420Z,106.80
2018-02-09T19:40:14.928Z,96.20
2018-02-09T19:42:42.401Z,103.53
2018-02-09T19:45:09.758Z,94.60
2018-02-09T19:47:36.928Z,101.70
2018-02-09T19:50:04.107Z,100.70
2018-02-09T19:52:30.688Z,103.35
2018-02-09T19:54:57.148Z,96.12
2018-02-09T19:57:23.603Z,103.90
2018-02-09T19:59:50.064Z,92.55
2018-02-09T20:02:16.536Z,99.78
2018-02-09T20:04:43.708Z,96.72
2018-02-09T20:07:10.170Z,95.55
2018-02-09T20:09:36.647Z,91.15
2018-02-09T20:12:03.118Z,97.45
2018-02-09T20:14:29.589Z,93.70
2018-02-09T20:16:56.070Z,90.10
2018-02-09T20:19:22.559Z,94.25
2018-02-09T20:21:48.988Z,91.22
2018-02-09T20:24:15.444Z,88.00
2018-02-09T20:26:41.937Z,89.75
2018-02-09T20:29:09.488Z,94.62
2018-02-09T20:31:36.686Z,82.07
2018-02-09T20:34:03.088Z,85.10
2018-02-09T20:36:29.556Z,80.47
2018-02-09T20:38:56.800Z,85.87
2018-02-09T20:41:23.292Z,79.75
2018-02-09T20:43:49.909Z,85.80
2018-02-09T20:46:16.369Z,87.93
2018-02-09T20:48:43.535Z,90.55
2018-02-09T20:51:10.757Z,80.00
2018-02-09T20:53:38.462Z,81.57
2018-02-09T20:56:04.908Z,98.28
2018-02-09T20:58:31.376Z,92.30
2018-02-09T21:00:58.204Z,93.10
2018-02-09T21:03:24.707Z,92.65
2018-02-09T21:05:51.139Z,94.60
2018-02-09T21:08:17.623Z,98.70
2018-02-09T21:10:44.470Z,89.75
2018-02-09T21:13:11.494Z,83.80
2018-02-09T21:15:37.984Z,88.85
2018-02-09T21:18:04.390Z,99.00
2018-02-09T21:20:31.709Z,87.97
2018-02-09T21:22:58.240Z,86.90
2018-02-09T21:25:24.674Z,86.45
2018-02-09T21:27:51.138Z,73.78
2018-02-09T21:30:17.578Z,94.85
2018-02-09T21:32:44.056Z,96.57
2018-02-09T21:35:10.535Z,83.03
2018-02-09T21:37:37.761Z,86.95
2018-02-09T21:40:04.249Z,89.28
2018-02-09T21:42:31.823Z,90.80
2018-02-09T21:44:58.270Z,99.40
2018-02-09T21:47:24.732Z,100.30
2018-02-09T21:49:51.876Z,106.82
2018-02-09T21:52:19.115Z,96.12
2018-02-09T21:54:45.623Z,97.30
2018-02-09T21:57:12.086Z,78.03
2018-02-09T21:59:38.533Z,94.03
2018-02-09T22:02:04.957Z,94.60
2018-02-09T22:04:31.511Z,104.40
2018-02-09T22:06:58.022Z,85.35
2018-02-09T22:09:24.444Z,84.25
2018-02-09T22:11:50.911Z,99.15
2018-02-09T22:14:17.388Z,86.72
2018-02-09T22:16:44.575Z,98.68
2018-02-09T22:19:11.016Z,90.18
2018-02-09T22:21:37.467Z,102.50
2018-02-09T22:24:04.640Z,88.53
2018-02-09T22:26:31.137Z,85.10
2018-02-09T22:28:57.584Z,94.97
2018-02-09T22:31:24.802Z,84.85
2018-02-09T22:33:51.239Z,85.97
2018-02-09T22:36:18.692Z,87.68
2018-02-09T22:38:45.839Z,91.57
2018-02-09T22:41:12.316Z,87.55
2018-02-09T22:43:38.797Z,97.85
2018-02-09T22:46:06.033Z,85.97
2018-02-09T22:48:32.540Z,84.72
2018-02-09T22:50:59.021Z,84.70
2018-02-09T22:53:25.488Z,93.55
2018-02-09T23:39:32.015Z,87.43
2018-02-09T23:41:58.465Z,97.75
2018-02-09T23:44:25.004Z,93.40
2018-02-09T23:46:51.468Z,91.63
2018-02-09T23:49:17.954Z,93.47
2018-02-09T23:51:44.484Z,87.85
2018-02-09T23:54:10.964Z,83.57
2018-02-09T23:56:38.192Z,86.12
2018-02-09T23:59:04.693Z,88.32
